Time;durP1;ratioP1;P1;durP2;ratioP2;P2;SDS_P1;SDS_P2;PMS_P1;PMS_P2;Temp;Humidity;BMP_temperature;BMP_pressure;BME280_temperature;BME280_humidity;BME280_pressure;Samples;Min_cycle;Max_cycle;Signal;HPM_P1;HPM_P2
2021/09/09 06:36:46;;;;;;;26.82;9.35;;;;;;;16.52;58.85;102105.38;1724795;81;21100;-86
2021/09/09 06:39:17;;;;;;;22.58;6.83;;;;;;;16.68;59.09;102106.04;1734693;81;21160;-86
2021/09/09 06:41:47;;;;;;;23.07;5.97;;;;;;;16.77;59.06;102109.34;1736272;82;21059;-84
2021/09/09 06:44:15;;;;;;;16.35;5.95;;;;;;;16.90;59.17;102106.70;1724128;81;21078;-85
2021/09/09 06:46:42;;;;;;;21.52;5.95;;;;;;;17.04;58.92;102113.61;1721680;82;21455;-83
2021/09/09 06:49:10;;;;;;;21.12;5.35;;;;;;;17.14;59.11;102108.91;1735482;81;21199;-83
2021/09/09 06:51:43;;;;;;;13.80;5.35;;;;;;;17.27;59.14;102111.03;1735987;82;21868;-87
2021/09/09 06:54:14;;;;;;;20.25;6.47;;;;;;;17.40;58.91;102113.14;1735234;82;21111;-83
2021/09/09 06:57:04;;;;;;;16.82;5.97;;;;;;;17.52;58.81;102117.16;1735149;81;21391;-86
2021/09/09 06:59:33;;;;;;;16.73;5.30;;;;;;;17.62;58.73;102113.77;1732093;82;21116;-84
2021/09/09 07:02:00;;;;;;;17.02;5.75;;;;;;;17.74;58.70;102114.19;1736405;82;20931;-84
2021/09/09 07:04:30;;;;;;;26.57;6.35;;;;;;;17.84;58.65;102116.98;1732162;81;21736;-83
2021/09/09 07:07:04;;;;;;;23.12;6.40;;;;;;;17.95;58.82;102114.41;1722242;82;37872;-83
2021/09/09 07:09:33;;;;;;;20.12;6.22;;;;;;;18.04;59.17;102109.78;1707880;83;21068;-82
2021/09/09 07:12:04;;;;;;;20.50;7.67;;;;;;;18.17;59.29;102116.28;1706972;83;20991;-84
2021/09/09 07:14:33;;;;;;;28.80;8.48;;;;;;;18.29;59.45;102115.34;1706328;82;21589;-82
2021/09/09 07:17:00;;;;;;;20.00;7.87;;;;;;;18.40;58.98;102121.49;1672164;84;21764;-82
2021/09/09 07:19:27;;;;;;;15.95;6.58;;;;;;;18.50;59.03;102119.03;1702469;82;21101;-83
2021/09/09 07:21:57;;;;;;;15.20;5.78;;;;;;;18.61;58.81;102120.34;1706112;83;21592;-82
2021/09/09 07:24:30;;;;;;;13.72;4.90;;;;;;;18.71;58.51;102123.95;1690578;83;21123;-83
2021/09/09 07:26:57;;;;;;;18.02;6.42;;;;;;;18.82;57.96;102123.98;1704915;82;21554;-80
2021/09/09 07:29:26;;;;;;;26.33;7.08;;;;;;;18.91;57.71;102120.63;1706535;84;21882;-86
2021/09/09 07:31:53;;;;;;;20.50;6.62;;;;;;;19.00;57.78;102113.80;1706726;84;21156;-83
2021/09/09 07:34:21;;;;;;;13.05;5.62;;;;;;;19.11;57.96;102115.13;1706701;84;21054;-83
2021/09/09 07:36:49;;;;;;;15.58;5.33;;;;;;;19.22;57.77;102112.46;1706521;82;21604;-83
2021/09/09 07:39:16;;;;;;;23.57;9.60;;;;;;;19.33;57.62;102114.25;1705585;84;21134;-84
2021/09/09 07:41:51;;;;;;;27.87;8.13;;;;;;;19.42;57.64;102110.91;1696937;84;21263;-87
2021/09/09 07:44:21;;;;;;;11.48;5.72;;;;;;;19.52;57.73;102108.74;1693399;84;21038;-82
2021/09/09 07:46:51;;;;;;;11.25;5.85;;;;;;;19.64;57.67;102106.90;1696295;83;21028;-86
2021/09/09 07:49:20;;;;;;;15.00;5.78;;;;;;;19.75;57.38;102108.16;1696736;84;21051;-82
2021/09/09 07:51:51;;;;;;;13.65;6.03;;;;;;;19.84;57.21;102098.22;1676776;84;21395;-82
2021/09/09 07:54:18;;;;;;;14.80;5.50;;;;;;;19.93;57.12;102099.25;1696769;84;21123;-85
2021/09/09 07:56:51;;;;;;;15.83;5.85;;;;;;;20.04;56.85;102100.49;1696724;84;20975;-85
2021/09/09 07:59:16;;;;;;;17.40;5.65;;;;;;;20.15;56.84;102099.13;1695797;84;21036;-83
2021/09/09 08:01:45;;;;;;;16.67;5.62;;;;;;;20.26;56.33;102101.72;1699470;83;21578;-82
2021/09/09 08:04:16;;;;;;;13.90;5.33;;;;;;;20.36;55.94;102100.47;1696768;84;21573;-81
2021/09/09 08:06:49;;;;;;;18.45;5.50;;;;;;;20.46;55.42;102094.30;1696542;84;21907;-88
2021/09/09 08:09:31;;;;;;;12.98;5.80;;;;;;;20.54;55.24;102098.45;1679152;83;21039;-83
2021/09/09 08:12:04;;;;;;;16.77;5.33;;;;;;;20.64;54.95;102096.34;1677448;84;21058;-82
2021/09/09 08:14:33;;;;;;;11.33;5.62;;;;;;;20.69;54.18;102100.25;1676486;84;21146;-84
2021/09/09 08:17:07;;;;;;;10.05;4.65;;;;;;;20.77;54.02;102099.09;1703518;83;21088;-85
2021/09/09 08:19:36;;;;;;;9.65;4.92;;;;;;;20.87;53.71;102097.81;1725901;83;21031;-82
2021/09/09 08:22:19;;;;;;;12.45;5.25;;;;;;;20.96;53.53;102096.53;1704550;82;21047;-89
2021/09/09 08:24:47;;;;;;;14.78;5.65;;;;;;;21.04;52.47;102089.27;1725134;82;21159;-84
2021/09/09 08:27:14;;;;;;;12.15;5.42;;;;;;;21.09;52.66;102084.47;1726225;81;21083;-84
2021/09/09 08:29:42;;;;;;;12.88;5.53;;;;;;;21.18;52.81;102084.98;1724147;82;21114;-87
2021/09/09 08:32:10;;;;;;;12.13;4.70;;;;;;;21.31;52.51;102081.61;1725881;83;21316;-83
2021/09/09 08:34:42;;;;;;;19.87;5.47;;;;;;;21.42;51.04;102082.80;1727520;82;21013;-82
2021/09/09 08:37:15;;;;;;;22.95;6.78;;;;;;;21.50;49.91;102077.67;1727487;81;20991;-83
2021/09/09 08:39:49;;;;;;;26.23;10.85;;;;;;;21.60;49.86;102070.56;1735511;81;21784;-85
2021/09/09 08:42:18;;;;;;;11.25;5.25;;;;;;;21.72;50.02;102067.31;1735379;82;21863;-83
2021/09/09 08:44:51;;;;;;;10.90;5.87;;;;;;;21.77;48.85;102073.01;1746822;79;21569;-85
2021/09/09 08:47:23;;;;;;;;;;;;;;;21.84;49.01;102070.64;1755733;81;21011;-83
2021/09/09 08:49:51;;;;;;;22.42;5.83;;;;;;;21.90;49.32;102065.66;1745744;81;20442;-82
2021/09/09 08:52:18;;;;;;;26.25;6.83;;;;;;;21.95;49.82;102058.13;1758686;79;21004;-82
2021/09/09 08:57:59;;;;;;;8.33;3.65;;;;;;;22.21;48.60;102055.72;1714156;81;21577;-85
2021/09/09 09:00:29;;;;;;;10.43;3.50;;;;;;;22.39;44.03;102056.67;1734138;82;20995;-86
2021/09/09 09:02:56;;;;;;;10.80;3.95;;;;;;;22.55;42.73;102048.13;1733947;82;21066;-81
2021/09/09 09:05:25;;;;;;;6.28;2.92;;;;;;;22.64;40.06;102055.19;1734687;82;22103;-84
2021/09/09 09:08:03;;;;;;;8.93;3.40;;;;;;;22.77;39.73;102051.75;1733759;82;21204;-82
2021/09/09 09:10:31;;;;;;;8.15;3.58;;;;;;;22.88;40.05;102054.70;1732503;82;21132;-82
2021/09/09 09:13:01;;;;;;;13.70;4.20;;;;;;;22.99;40.30;102047.87;1734528;81;21554;-83
2021/09/09 09:15:33;;;;;;;14.35;3.47;;;;;;;23.07;40.72;102040.84;1748167;81;21130;-82
2021/09/09 09:18:11;;;;;;;16.57;3.55;;;;;;;23.15;40.82;102049.38;1759099;81;21122;-84
2021/09/09 09:20:52;;;;;;;12.03;3.42;;;;;;;23.28;39.93;102045.03;1677367;83;21117;-84
2021/09/09 09:23:27;;;;;;;6.60;3.02;;;;;;;23.43;39.47;102047.53;1692805;84;21137;-86
2021/09/09 09:26:03;;;;;;;7.75;3.40;;;;;;;23.55;39.04;102035.22;1748473;81;21565;-81
2021/09/09 09:28:45;;;;;;;6.50;2.90;;;;;;;23.65;38.89;102035.14;1741702;81;20963;-84
2021/09/09 09:31:22;;;;;;;14.65;2.77;;;;;;;23.73;38.48;102037.04;1734894;82;21063;-83
2021/09/09 09:34:10;;;;;;;6.60;3.05;;;;;;;23.79;38.21;102024.49;1722223;82;21023;-84
2021/09/09 09:36:40;;;;;;;12.28;3.30;;;;;;;23.84;37.42;102025.69;1736547;82;20975;-86
2021/09/09 09:39:13;;;;;;;23.27;4.22;;;;;;;23.94;37.15;102025.59;1738478;81;21059;-86
2021/09/09 09:42:03;;;;;;;14.60;3.60;;;;;;;24.06;37.37;102025.70;1747932;81;21043;-84
2021/09/09 09:44:40;;;;;;;10.35;3.35;;;;;;;24.28;36.95;102015.08;1741518;81;21047;-81
2021/09/09 09:47:19;;;;;;;21.40;3.27;;;;;;;25.47;35.68;102018.78;1732534;82;20885;-83
2021/09/09 09:49:53;;;;;;;7.50;3.00;;;;;;;26.92;33.11;102005.22;1732678;82;21756;-79
2021/09/09 09:52:27;;;;;;;7.25;3.02;;;;;;;28.34;31.75;102000.34;1732470;82;21003;-82
2021/09/09 09:55:00;;;;;;;10.63;3.12;;;;;;;29.58;29.80;101996.61;1732016;82;21058;-81
2021/09/09 09:57:29;;;;;;;8.13;3.05;;;;;;;30.79;28.08;101999.09;1705966;82;21067;-84
2021/09/09 09:59:57;;;;;;;9.63;3.17;;;;;;;31.74;26.83;101994.00;1732884;82;21056;-84
2021/09/09 10:02:24;;;;;;;15.65;3.17;;;;;;;32.54;25.37;101988.75;1732342;82;21119;-86
2021/09/09 10:04:53;;;;;;;11.83;2.62;;;;;;;33.25;23.89;101990.77;1732168;82;21011;-78
2021/09/09 10:07:20;;;;;;;12.60;3.25;;;;;;;33.69;23.09;101991.14;1732084;82;21608;-81
2021/09/09 10:09:49;;;;;;;8.93;3.10;;;;;;;34.43;22.44;101993.13;1733506;82;21091;-85
2021/09/09 10:12:25;;;;;;;15.08;3.47;;;;;;;35.41;21.28;101992.28;1732115;82;21007;-88
2021/09/09 10:14:54;;;;;;;7.22;3.83;;;;;;;35.82;20.76;101980.56;1731574;82;20900;-85
2021/09/09 10:17:23;;;;;;;5.83;2.90;;;;;;;36.03;20.58;101986.69;1729322;82;21043;-81
2021/09/09 10:19:50;;;;;;;17.07;3.85;;;;;;;36.37;20.42;101982.31;1732463;82;21043;-78
2021/09/09 10:22:20;;;;;;;13.58;2.65;;;;;;;36.53;20.07;101981.58;1732677;82;21138;-81
2021/09/09 10:25:07;;;;;;;14.85;3.65;;;;;;;36.03;20.20;101977.23;1733014;82;21012;-83
2021/09/09 10:27:43;;;;;;;6.80;3.08;;;;;;;35.92;20.53;101967.28;1728369;82;21019;-85
2021/09/09 10:30:18;;;;;;;10.45;3.17;;;;;;;36.66;19.75;101972.34;1732567;82;21070;-81
2021/09/09 10:32:55;;;;;;;18.75;3.20;;;;;;;36.70;19.79;101966.72;1734938;81;21819;-78
2021/09/09 10:35:30;;;;;;;13.25;4.03;;;;;;;36.54;20.14;101968.84;1759658;81;21066;-78
2021/09/09 10:38:19;;;;;;;7.53;3.15;;;;;;;35.58;21.06;101960.84;1741536;80;21016;-83
2021/09/09 10:40:47;;;;;;;8.95;3.52;;;;;;;34.69;22.04;101972.28;1728022;82;21096;-82
2021/09/09 10:43:17;;;;;;;9.55;3.55;;;;;;;33.72;23.68;101967.81;1736603;82;20983;-81
2021/09/09 10:45:45;;;;;;;7.95;3.50;;;;;;;32.74;24.98;101953.22;1736883;82;21035;-80
2021/09/09 10:48:23;;;;;;;10.70;3.10;;;;;;;32.19;25.93;101954.69;1725609;81;21527;-79
2021/09/09 10:51:13;;;;;;;17.45;3.72;;;;;;;31.67;26.50;101948.37;1706676;83;21223;-80
2021/09/09 10:53:55;;;;;;;8.90;2.75;;;;;;;30.89;27.52;101955.30;1717200;83;20995;-82
2021/09/09 10:56:24;;;;;;;12.33;4.15;;;;;;;30.18;28.19;101956.69;1697210;84;20999;-86
2021/09/09 10:59:18;;;;;;;13.30;3.37;;;;;;;29.66;28.81;101955.82;1701361;83;21063;-79
2021/09/09 11:01:45;;;;;;;10.28;3.47;;;;;;;29.23;29.19;101951.54;1697805;82;21051;-83
2021/09/09 11:04:33;;;;;;;13.05;3.72;;;;;;;28.80;29.65;101948.85;1697476;84;21715;-83
2021/09/09 11:07:27;;;;;;;10.45;3.37;;;;;;;28.41;30.11;101950.19;1697712;84;21055;-78
2021/09/09 11:10:05;;;;;;;11.78;3.50;;;;;;;27.83;30.64;101950.50;1697221;84;21027;-80
2021/09/09 11:12:36;;;;;;;27.35;5.08;;;;;;;27.27;32.21;101950.01;1692543;83;22098;-81
2021/09/09 11:15:09;;;;;;;7.03;3.00;;;;;;;26.89;33.30;101940.80;1696625;84;21337;-82
2021/09/09 11:17:37;;;;;;;10.98;3.47;;;;;;;26.68;34.18;101939.55;1712719;83;21099;-82
2021/09/09 11:20:08;;;;;;;8.13;2.92;;;;;;;26.60;34.47;101934.78;1725931;83;21535;-89
2021/09/09 11:22:39;;;;;;;10.63;2.90;;;;;;;26.59;34.82;101931.28;1726022;83;21074;-83
2021/09/09 11:25:19;;;;;;;10.20;3.05;;;;;;;26.67;34.94;101937.08;1726635;83;21058;-79
2021/09/09 11:27:48;;;;;;;6.90;3.52;;;;;;;27.46;34.21;101933.21;1696936;84;21668;-82
2021/09/09 11:30:17;;;;;;;6.67;2.92;;;;;;;28.18;32.50;101931.12;1697708;84;21834;-79
2021/09/09 11:33:06;;;;;;;9.95;4.30;;;;;;;28.08;32.28;101927.90;1698581;84;21039;-79
2021/09/09 11:35:38;;;;;;;6.03;3.52;;;;;;;27.75;32.81;101924.76;1698114;84;21007;-81
2021/09/09 11:38:06;;;;;;;6.33;3.00;;;;;;;27.32;33.42;101918.80;1700241;83;21058;-82
2021/09/09 11:40:33;;;;;;;14.03;2.77;;;;;;;27.10;34.04;101914.32;1729288;82;21047;-82
2021/09/09 11:43:02;;;;;;;6.22;2.47;;;;;;;26.94;34.55;101913.94;1735033;82;21218;-80
2021/09/09 11:45:30;;;;;;;7.25;3.40;;;;;;;26.86;34.78;101915.84;1755662;81;21150;-82
2021/09/09 11:48:04;;;;;;;7.30;2.65;;;;;;;26.78;34.40;101912.69;1762345;80;21133;-81
2021/09/09 11:50:48;;;;;;;7.25;2.95;;;;;;;26.62;34.70;101910.12;1740211;81;21094;-82
2021/09/09 11:53:23;;;;;;;8.60;2.80;;;;;;;26.51;34.38;101905.22;1723591;82;21563;-82
2021/09/09 11:55:54;;;;;;;12.88;3.02;;;;;;;26.46;34.83;101908.88;1738813;81;20960;-81
2021/09/09 11:58:36;;;;;;;3.45;2.15;;;;;;;26.41;34.71;101903.27;1717929;81;21122;-83
2021/09/09 12:01:03;;;;;;;5.12;2.70;;;;;;;26.46;34.39;101908.88;1763984;81;21598;-80
2021/09/09 12:03:31;;;;;;;3.50;2.37;;;;;;;26.62;34.40;101892.82;1764177;80;21063;-80
2021/09/09 12:06:00;;;;;;;12.50;3.85;;;;;;;26.73;34.34;101893.27;1765285;81;21067;-80
2021/09/09 12:08:27;;;;;;;6.92;3.05;;;;;;;26.66;35.27;101890.14;1764110;81;21115;-83
2021/09/09 12:11:11;;;;;;;8.38;3.20;;;;;;;26.53;35.64;101888.05;1765199;80;21113;-82
2021/09/09 12:13:44;;;;;;;8.08;3.52;;;;;;;26.47;35.89;101886.09;1765172;80;21568;-87
2021/09/09 12:16:22;;;;;;;9.83;3.15;;;;;;;26.42;35.89;101891.09;1765727;80;21066;-81
2021/09/09 12:19:06;;;;;;;12.05;3.20;;;;;;;26.41;35.95;101896.61;1765570;80;20960;-80
2021/09/09 12:21:34;;;;;;;12.88;3.30;;;;;;;26.46;35.59;101887.09;1766129;80;26671;-80
2021/09/09 12:24:10;;;;;;;5.83;2.50;;;;;;;26.54;35.22;101884.89;1764969;81;21096;-82
2021/09/09 12:26:39;;;;;;;15.05;4.08;;;;;;;26.52;35.42;101887.72;1756853;81;21751;-81
2021/09/09 12:29:17;;;;;;;9.00;3.05;;;;;;;26.51;35.81;101888.74;1744750;81;20985;-81
2021/09/09 12:31:47;;;;;;;3.75;2.40;;;;;;;26.54;35.72;101886.23;1756412;81;21067;-84
2021/09/09 12:34:16;;;;;;;12.47;3.20;;;;;;;26.51;35.35;101887.91;1701490;83;20985;-81
2021/09/09 12:36:57;;;;;;;8.50;3.08;;;;;;;26.36;35.26;101879.82;1748803;79;21727;-86
2021/09/09 12:39:25;;;;;;;7.22;2.45;;;;;;;26.38;34.93;101876.50;1737678;81;21369;-83
2021/09/09 13:20:05;;;;;;;9.40;2.58;;;;;;;26.50;34.09;101843.15;1740052;81;20986;-80
2021/09/09 13:22:32;;;;;;;8.13;2.87;;;;;;;26.40;34.20;101843.04;1740171;82;22197;-80
2021/09/09 13:25:00;;;;;;;5.78;3.12;;;;;;;26.39;33.78;101839.55;1740042;81;21276;-81
2021/09/09 13:27:27;;;;;;;5.60;3.15;;;;;;;26.39;33.87;101834.22;1739790;81;20970;-81
2021/09/09 13:29:55;;;;;;;15.85;3.72;;;;;;;26.35;34.01;101842.75;1740473;81;20949;-81
2021/09/09 13:32:22;;;;;;;15.60;5.67;;;;;;;26.30;34.28;101841.93;1742513;81;21032;-79
2021/09/09 13:34:48;;;;;;;11.03;3.45;;;;;;;26.30;34.46;101840.59;1741144;81;21326;-81
2021/09/09 13:37:15;;;;;;;10.00;3.50;;;;;;;26.37;34.11;101842.89;1731226;82;21570;-82
2021/09/09 13:39:42;;;;;;;18.52;3.05;;;;;;;26.49;33.64;101834.83;1764376;81;20885;-82
2021/09/09 13:42:12;;;;;;;10.35;3.37;;;;;;;26.57;33.40;101830.80;1743652;81;20955;-82
2021/09/09 13:44:39;;;;;;;11.20;2.62;;;;;;;26.63;33.34;101825.25;1760458;81;21023;-83
2021/09/09 13:47:06;;;;;;;20.95;4.85;;;;;;;26.79;32.77;101827.30;1764225;81;20997;-81
2021/09/09 13:49:33;;;;;;;15.98;3.85;;;;;;;26.93;32.81;101825.69;1764312;81;21534;-80
2021/09/09 13:52:02;;;;;;;5.60;3.15;;;;;;;26.97;32.94;101826.16;1764043;81;20897;-83
2021/09/09 13:54:30;;;;;;;8.05;2.80;;;;;;;26.76;33.34;101824.16;1764508;81;21484;-81
2021/09/09 13:56:59;;;;;;;11.90;3.12;;;;;;;26.41;33.75;101819.42;1764570;81;20917;-81
2021/09/09 13:59:28;;;;;;;9.83;3.67;;;;;;;26.09;34.28;101827.89;1764412;81;20976;-83
2021/09/09 14:01:58;;;;;;;7.45;3.00;;;;;;;25.84;34.82;101829.50;1764893;81;26702;-82
2021/09/09 14:04:27;;;;;;;8.05;2.90;;;;;;;25.61;35.47;101829.41;1764511;81;20964;-83
2021/09/09 14:06:55;;;;;;;5.92;2.77;;;;;;;25.43;35.77;101837.55;1764538;81;21020;-81
2021/09/09 14:09:23;;;;;;;7.47;3.00;;;;;;;25.28;36.16;101832.60;1764305;81;21492;-82
2021/09/09 14:11:52;;;;;;;14.65;3.55;;;;;;;25.14;36.12;101827.98;1764485;81;20920;-84
2021/09/09 14:14:20;;;;;;;10.03;3.25;;;;;;;25.04;36.15;101828.66;1764359;81;21186;-82
2021/09/09 14:16:47;;;;;;;5.37;2.92;;;;;;;24.96;36.02;101826.82;1764540;81;21482;-83
2021/09/09 14:19:14;;;;;;;5.42;2.83;;;;;;;24.86;35.94;101827.48;1764563;81;21054;-82
2021/09/09 14:21:40;;;;;;;12.00;3.30;;;;;;;24.73;36.19;101823.95;1764611;81;21135;-81
2021/09/09 14:24:08;;;;;;;9.05;2.72;;;;;;;24.60;36.51;101820.16;1764356;81;21602;-79
2021/09/09 14:26:37;;;;;;;12.37;3.65;;;;;;;24.53;36.80;101814.67;1764337;81;21696;-80
2021/09/09 14:29:05;;;;;;;13.08;3.00;;;;;;;24.49;36.93;101818.64;1764426;80;21602;-82
2021/09/09 14:31:32;;;;;;;16.82;6.00;;;;;;;24.44;36.86;101812.17;1764666;81;20892;-83
2021/09/09 14:34:00;;;;;;;10.30;4.78;;;;;;;24.42;37.08;101810.16;1764592;81;20988;-82
2021/09/09 14:36:26;;;;;;;7.83;3.52;;;;;;;24.38;37.13;101806.19;1764350;81;20967;-81
2021/09/09 14:38:54;;;;;;;13.65;3.37;;;;;;;24.36;37.10;101809.48;1759753;81;21157;-82
2021/09/09 14:41:21;;;;;;;10.32;2.67;;;;;;;24.34;37.19;101804.84;1767125;81;21590;-83
2021/09/09 14:43:49;;;;;;;13.35;3.42;;;;;;;24.29;36.85;101803.16;1743935;80;20941;-81
2021/09/09 14:46:17;;;;;;;5.83;2.75;;;;;;;24.24;36.47;101808.97;1764517;81;20980;-83
2021/09/09 14:48:44;;;;;;;12.47;3.22;;;;;;;24.15;36.23;101804.12;1764631;81;21075;-82
2021/09/09 14:51:11;;;;;;;6.95;3.00;;;;;;;24.03;36.44;101807.20;1764690;81;21116;-83
2021/09/09 14:53:39;;;;;;;5.92;2.90;;;;;;;23.93;36.92;101798.58;1764616;81;21026;-84
2021/09/09 14:56:06;;;;;;;11.28;5.00;;;;;;;23.84;37.55;101799.02;1764750;81;20921;-82
2021/09/09 14:58:32;;;;;;;10.60;3.85;;;;;;;23.81;38.00;101801.98;1764686;81;20996;-84
2021/09/09 15:01:02;;;;;;;9.83;3.27;;;;;;;23.78;38.13;101805.45;1764582;81;21464;-79
2021/09/09 15:03:30;;;;;;;16.80;3.55;;;;;;;23.71;38.50;101794.16;1764540;81;21112;-83
2021/09/09 15:05:56;;;;;;;9.80;3.00;;;;;;;23.63;38.96;101796.79;1764654;81;20976;-84
2021/09/09 15:08:25;;;;;;;10.82;3.30;;;;;;;23.55;39.23;101794.08;1764582;81;20928;-82
2021/09/09 15:10:51;;;;;;;11.33;4.33;;;;;;;23.46;39.50;101795.52;1764665;81;21464;-83
2021/09/09 15:13:19;;;;;;;6.25;2.67;;;;;;;23.39;39.92;101797.13;1764518;81;20952;-82
2021/09/09 15:15:47;;;;;;;16.20;3.80;;;;;;;23.28;40.09;101792.08;1764646;81;21145;-77
2021/09/09 15:18:16;;;;;;;8.13;2.92;;;;;;;23.15;40.10;101789.84;1764709;81;20991;-84
2021/09/09 15:20:42;;;;;;;10.88;3.15;;;;;;;23.04;40.26;101789.59;1764692;81;21597;-82
2021/09/09 15:23:09;;;;;;;7.00;2.90;;;;;;;23.01;40.64;101788.58;1764767;81;20989;-82
2021/09/09 15:25:36;;;;;;;15.18;3.17;;;;;;;22.95;40.84;101789.20;1764816;81;20913;-82
2021/09/09 15:28:04;;;;;;;5.85;3.27;;;;;;;22.90;40.95;101788.84;1765055;81;21786;-83
2021/09/09 15:30:35;;;;;;;8.35;4.00;;;;;;;22.82;41.26;101787.44;1764770;81;20920;-85
2021/09/09 15:33:01;;;;;;;7.40;3.50;;;;;;;22.71;41.49;101790.34;1764769;81;20999;-82
2021/09/09 15:35:28;;;;;;;9.38;3.70;;;;;;;22.59;41.58;101788.37;1764771;81;20952;-83
2021/09/09 15:37:57;;;;;;;5.62;3.55;;;;;;;22.49;41.69;101785.48;1765056;81;21459;-83
2021/09/09 15:40:26;;;;;;;9.05;4.03;;;;;;;22.41;42.02;101784.90;1765561;81;21531;-84
2021/09/09 15:42:55;;;;;;;9.33;3.65;;;;;;;22.36;41.96;101783.70;1765498;81;20941;-82
2021/09/09 15:45:23;;;;;;;8.18;3.52;;;;;;;22.28;41.99;101784.44;1764460;81;21042;-81
2021/09/09 15:47:49;;;;;;;8.58;3.67;;;;;;;22.19;41.95;101786.66;1765008;81;20987;-81
2021/09/09 15:50:19;;;;;;;10.80;3.42;;;;;;;22.14;42.07;101783.13;1765761;81;20956;-84
2021/09/09 15:52:47;;;;;;;7.12;3.27;;;;;;;22.08;42.09;101784.23;1770727;81;20909;-83
2021/09/09 15:55:18;;;;;;;9.00;3.70;;;;;;;21.99;41.96;101778.49;1769849;81;21477;-83
2021/09/09 15:57:45;;;;;;;8.90;3.33;;;;;;;21.91;42.10;101774.45;1770002;80;21034;-84
2021/09/09 16:00:15;;;;;;;6.08;2.80;;;;;;;21.81;42.46;101773.14;1769972;81;21007;-84
2021/09/09 16:02:43;;;;;;;7.22;3.20;;;;;;;21.70;42.81;101770.68;1770163;81;21001;-86
2021/09/09 16:05:14;;;;;;;7.95;3.45;;;;;;;21.60;43.19;101765.95;1770105;81;21404;-86
2021/09/09 16:07:39;;;;;;;12.03;3.90;;;;;;;21.53;43.43;101771.47;1769406;81;20944;-85
2021/09/09 16:10:09;;;;;;;9.03;3.20;;;;;;;21.46;43.63;101774.34;1770317;81;20932;-82
2021/09/09 16:12:35;;;;;;;5.20;2.85;;;;;;;21.38;43.86;101775.05;1769545;81;20934;-82
2021/09/09 16:15:05;;;;;;;8.08;3.20;;;;;;;21.30;44.11;101778.91;1769702;81;21412;-82
2021/09/09 16:17:33;;;;;;;7.40;3.13;;;;;;;21.22;44.38;101773.50;1769730;81;21366;-83
2021/09/09 16:20:00;;;;;;;12.63;3.40;;;;;;;21.13;44.66;101782.76;1769661;81;20885;-82
2021/09/09 16:22:27;;;;;;;6.17;3.22;;;;;;;21.03;44.84;101773.51;1769639;81;21049;-83
2021/09/09 16:24:54;;;;;;;8.48;3.27;;;;;;;20.93;45.04;101781.44;1769872;81;21566;-83
2021/09/09 16:27:21;;;;;;;7.90;3.20;;;;;;;20.83;45.36;101776.69;1770010;81;21003;-84
2021/09/09 16:29:48;;;;;;;11.00;3.75;;;;;;;20.74;45.56;101778.02;1769674;81;21491;-83
2021/09/09 16:32:17;;;;;;;13.98;3.37;;;;;;;20.63;45.79;101774.19;1769707;81;21791;-82
2021/09/09 16:34:48;;;;;;;11.80;3.30;;;;;;;20.53;46.09;101771.06;1769661;81;21007;-82
2021/09/09 16:37:17;;;;;;;17.65;3.70;;;;;;;20.44;46.40;101777.17;1769755;81;21062;-82
2021/09/09 16:39:43;;;;;;;11.73;3.45;;;;;;;20.34;46.73;101774.17;1770053;81;21062;-82
2021/09/09 16:42:11;;;;;;;14.25;4.15;;;;;;;20.26;46.93;101777.48;1767841;80;21135;-83
2021/09/09 16:44:39;;;;;;;12.00;3.70;;;;;;;20.19;47.02;101778.15;1745189;81;21050;-83
2021/09/09 16:47:05;;;;;;;19.32;4.08;;;;;;;20.10;47.45;101773.22;1764722;81;21511;-81
2021/09/09 16:49:33;;;;;;;13.00;3.95;;;;;;;20.00;47.71;101769.24;1764623;81;21436;-82
2021/09/09 16:52:01;;;;;;;28.02;4.08;;;;;;;19.92;48.03;101769.55;1764840;81;20989;-82
2021/09/09 16:54:29;;;;;;;14.45;4.65;;;;;;;19.83;48.19;101769.88;1764865;81;21147;-83
2021/09/09 16:56:59;;;;;;;16.10;4.10;;;;;;;19.73;48.39;101767.69;1764747;81;21029;-83
2021/09/09 16:59:31;;;;;;;21.10;3.70;;;;;;;19.66;48.48;101774.92;1764465;81;21381;-83
2021/09/09 17:01:58;;;;;;;13.30;3.80;;;;;;;19.58;48.55;101770.34;1764820;81;20968;-83
2021/09/09 17:04:26;;;;;;;18.00;4.35;;;;;;;19.50;48.57;101775.41;1764919;81;21590;-83
2021/09/09 17:06:55;;;;;;;14.75;3.95;;;;;;;19.42;48.56;101777.41;1764851;81;21123;-83
2021/09/09 17:09:24;;;;;;;14.50;4.12;;;;;;;19.36;48.64;101783.64;1764930;81;21539;-83
2021/09/09 17:11:51;;;;;;;15.90;4.58;;;;;;;19.27;48.82;101777.34;1764934;81;20912;-83
2021/09/09 17:14:19;;;;;;;17.52;4.40;;;;;;;19.20;49.04;101775.38;1764682;81;20964;-83
2021/09/09 17:16:48;;;;;;;12.45;4.12;;;;;;;19.14;49.25;101783.31;1764780;81;20842;-82
2021/09/09 17:19:14;;;;;;;16.10;4.75;;;;;;;19.07;49.48;101777.38;1765085;81;21764;-82
2021/09/09 17:21:43;;;;;;;14.40;4.97;;;;;;;18.99;49.78;101779.31;1764668;81;20936;-82
2021/09/09 17:24:11;;;;;;;14.00;4.70;;;;;;;18.93;50.02;101789.03;1764806;81;20889;-82
2021/09/09 17:26:40;;;;;;;7.85;3.92;;;;;;;18.86;50.28;101789.19;1764667;81;20987;-83
2021/09/09 17:29:07;;;;;;;7.75;4.28;;;;;;;18.79;50.55;101783.63;1764573;81;20988;-82
2021/09/09 17:31:37;;;;;;;17.57;4.62;;;;;;;18.72;50.81;101789.03;1765251;81;21324;-83
2021/09/09 17:34:04;;;;;;;15.10;4.85;;;;;;;18.65;51.13;101787.86;1764656;81;20889;-82
2021/09/09 17:36:30;;;;;;;13.28;5.22;;;;;;;18.58;51.44;101787.16;1745029;81;21019;-83
2021/09/09 17:38:57;;;;;;;11.28;5.37;;;;;;;18.49;51.90;101793.98;1760970;81;20900;-83
2021/09/09 17:41:24;;;;;;;18.15;5.87;;;;;;;18.41;52.27;101793.78;1740149;81;21012;-83
2021/09/09 17:43:52;;;;;;;19.73;5.78;;;;;;;18.33;52.65;101794.39;1738289;82;20904;-83
2021/09/09 17:46:19;;;;;;;16.23;5.97;;;;;;;18.26;52.93;101796.31;1738593;81;21032;-82
2021/09/09 17:48:47;;;;;;;16.30;6.35;;;;;;;18.19;53.19;101801.69;1738521;82;20971;-82
2021/09/09 17:51:14;;;;;;;20.37;6.12;;;;;;;18.09;53.82;101799.00;1738458;82;20896;-82
2021/09/09 17:53:41;;;;;;;23.83;7.40;;;;;;;18.03;54.13;101802.58;1737940;82;21490;-82
2021/09/09 17:56:09;;;;;;;24.72;7.00;;;;;;;17.95;54.52;101805.80;1738179;82;21083;-82
2021/09/09 17:58:36;;;;;;;18.37;7.03;;;;;;;17.88;54.91;101794.94;1738009;81;21062;-83
2021/09/09 18:01:03;;;;;;;16.93;6.15;;;;;;;17.80;55.40;101799.14;1738050;82;20960;-82
2021/09/09 18:03:30;;;;;;;22.50;6.15;;;;;;;17.73;55.66;101801.41;1738190;81;20953;-83
2021/09/09 18:05:56;;;;;;;28.30;7.00;;;;;;;17.67;55.93;101801.89;1737957;82;20940;-83
2021/09/09 18:08:23;;;;;;;24.82;7.05;;;;;;;17.60;56.32;101799.84;1738251;82;21093;-83
2021/09/09 18:10:52;;;;;;;25.48;7.10;;;;;;;17.54;56.77;101805.06;1737847;82;21034;-83
2021/09/09 18:13:20;;;;;;;22.00;7.08;;;;;;;17.48;57.16;101798.98;1737879;82;21535;-82
2021/09/09 18:15:47;;;;;;;23.90;6.42;;;;;;;17.41;57.42;101801.70;1738164;82;21491;-83
2021/09/09 18:18:14;;;;;;;25.85;8.30;;;;;;;17.34;57.67;101804.43;1737849;82;21063;-83
2021/09/09 18:20:43;;;;;;;21.50;7.55;;;;;;;17.28;58.01;101800.97;1737971;82;21536;-83
2021/09/09 18:23:11;;;;;;;17.60;8.38;;;;;;;17.21;58.25;101802.38;1737926;82;20885;-82
2021/09/09 18:25:38;;;;;;;28.55;8.60;;;;;;;17.14;58.63;101799.37;1737832;82;21058;-82
2021/09/09 18:28:05;;;;;;;23.65;9.33;;;;;;;17.09;58.92;101805.93;1743333;81;21107;-83
2021/09/09 18:30:31;;;;;;;23.52;9.25;;;;;;;17.03;59.06;101803.30;1737932;82;21415;-83
2021/09/09 18:32:58;;;;;;;29.57;11.93;;;;;;;16.97;59.43;101802.92;1737993;82;21488;-83
2021/09/09 18:35:25;;;;;;;34.80;12.05;;;;;;;16.91;59.67;101804.22;1737702;82;20932;-83
2021/09/09 18:37:52;;;;;;;37.58;15.18;;;;;;;16.83;60.03;101802.16;1738221;82;20976;-82
2021/09/09 18:40:18;;;;;;;38.78;16.37;;;;;;;16.78;60.25;101803.45;1735298;80;20948;-82
2021/09/09 18:42:45;;;;;;;41.45;17.95;;;;;;;16.69;60.39;101797.08;1727752;83;21084;-82
2021/09/09 18:45:13;;;;;;;42.35;19.05;;;;;;;16.64;60.54;101800.53;1727751;83;20847;-82
2021/09/09 18:47:42;;;;;;;44.63;20.70;;;;;;;16.58;60.76;101800.98;1727810;83;20925;-82
2021/09/09 18:50:10;;;;;;;43.02;23.47;;;;;;;16.54;61.10;101794.72;1727866;83;20940;-82